createdAt,value
2018-07-09T00:00:04.703Z,69.5
2018-07-09T00:01:06.102Z,69.3
2018-07-09T00:02:07.491Z,69.3
2018-07-09T00:03:08.892Z,69.0
2018-07-09T00:04:10.288Z,69.5
2018-07-09T00:05:11.684Z,69.2
2018-07-09T00:06:13.152Z,69.5
2018-07-09T00:07:14.484Z,69.3
2018-07-09T00:08:15.882Z,69.3
2018-07-09T00:09:17.279Z,69.7
2018-07-09T00:10:18.665Z,69.5
2018-07-09T00:11:20.060Z,69.3
2018-07-09T00:12:22.431Z,69.5
2018-07-09T00:13:23.831Z,69.6
2018-07-09T00:14:25.226Z,69.8
2018-07-09T00:15:26.623Z,70.0
2018-07-09T00:16:28.016Z,70.4
2018-07-09T00:17:29.419Z,70.1
2018-07-09T00:18:30.812Z,70.2
2018-07-09T00:19:32.205Z,70.5
2018-07-09T00:20:33.601Z,70.4
2018-07-09T00:21:34.998Z,70.7
2018-07-09T00:22:36.403Z,71.4
2018-07-09T00:23:37.792Z,70.6
2018-07-09T00:24:39.186Z,70.6
2018-07-09T00:25:40.579Z,70.8
2018-07-09T00:26:41.975Z,71.4
2018-07-09T00:27:43.393Z,71.8
2018-07-09T00:28:44.797Z,72.0
2018-07-09T00:29:46.195Z,71.9
2018-07-09T00:30:47.589Z,71.4
2018-07-09T00:31:48.983Z,71.6
2018-07-09T00:32:50.374Z,71.5
2018-07-09T00:33:51.769Z,71.4
2018-07-09T00:34:53.169Z,71.8
2018-07-09T00:35:54.561Z,71.7
2018-07-09T00:36:55.960Z,71.4
2018-07-09T00:37:57.354Z,71.6
2018-07-09T00:38:58.749Z,71.3
2018-07-09T00:40:00.150Z,71.6
2018-07-09T00:41:01.545Z,72.0
2018-07-09T00:42:02.938Z,72.0
2018-07-09T00:43:04.338Z,71.7
2018-07-09T00:44:05.737Z,71.5
2018-07-09T00:45:07.135Z,71.5
2018-07-09T00:46:08.535Z,71.8
2018-07-09T00:47:09.926Z,71.4
2018-07-09T00:48:11.322Z,71.6
2018-07-09T00:49:12.718Z,71.4
2018-07-09T00:50:14.113Z,71.5
2018-07-09T00:51:15.504Z,71.8
2018-07-09T00:52:16.900Z,72.1
2018-07-09T00:53:18.291Z,71.9
2018-07-09T00:54:19.680Z,71.8
2018-07-09T00:55:21.077Z,71.7
2018-07-09T00:56:22.469Z,72.7
2018-07-09T00:57:23.860Z,72.5
2018-07-09T00:58:25.268Z,72.9
2018-07-09T00:59:28.065Z,72.7
2018-07-09T01:00:29.474Z,73.1
2018-07-09T01:01:30.875Z,73.0
2018-07-09T01:02:32.271Z,73.2
2018-07-09T01:03:33.670Z,73.3
2018-07-09T01:04:35.065Z,74.2
2018-07-09T01:05:36.466Z,74.0
2018-07-09T01:06:37.864Z,74.3
2018-07-09T01:07:39.256Z,74.2
2018-07-09T01:08:40.684Z,74.5
2018-07-09T01:09:42.148Z,75.1
2018-07-09T01:10:43.542Z,75.3
2018-07-09T01:11:44.935Z,76.1
2018-07-09T01:12:46.333Z,75.4
2018-07-09T01:13:47.731Z,76.3
2018-07-09T01:14:49.131Z,76.1
2018-07-09T01:15:50.529Z,76.4
2018-07-09T01:16:51.927Z,76.0
2018-07-09T01:17:53.321Z,76.1
2018-07-09T01:18:54.712Z,75.3
2018-07-09T01:19:56.106Z,75.3
2018-07-09T01:20:57.515Z,75.3
2018-07-09T01:21:58.908Z,74.6
2018-07-09T01:23:00.300Z,74.7
2018-07-09T01:24:01.691Z,74.4
2018-07-09T01:25:03.094Z,74.6
2018-07-09T01:26:04.488Z,74.3
2018-07-09T01:27:05.880Z,75.2
2018-07-09T01:28:07.277Z,74.4
2018-07-09T01:29:08.689Z,74.6
2018-07-09T01:30:10.082Z,74.4
2018-07-09T01:31:11.487Z,74.4
2018-07-09T01:32:12.884Z,75.0
2018-07-09T01:33:14.277Z,74.9
2018-07-09T01:34:15.677Z,75.0
2018-07-09T01:35:17.075Z,74.5
2018-07-09T01:36:18.467Z,75.1
2018-07-09T01:37:19.859Z,74.8
2018-07-09T01:38:21.251Z,75.0
2018-07-09T01:39:22.646Z,74.9
2018-07-09T01:40:24.040Z,74.7
2018-07-09T01:41:25.431Z,74.9
2018-07-09T01:42:26.829Z,75.0
2018-07-09T01:43:28.225Z,75.1
2018-07-09T01:44:29.618Z,75.7
2018-07-09T01:45:31.013Z,75.3
2018-07-09T01:46:32.406Z,74.8
2018-07-09T01:47:33.804Z,74.8
2018-07-09T01:48:35.198Z,74.7
2018-07-09T01:49:36.596Z,74.8
2018-07-09T01:50:37.986Z,74.8
2018-07-09T01:51:39.435Z,74.3
2018-07-09T01:52:40.828Z,74.7
2018-07-09T01:53:42.222Z,74.5
2018-07-09T01:54:43.613Z,74.3
2018-07-09T01:55:45.012Z,74.6
2018-07-09T01:56:46.404Z,74.6
2018-07-09T01:57:47.796Z,74.9
2018-07-09T01:58:49.186Z,74.6
2018-07-09T01:59:50.577Z,74.3
2018-07-09T02:00:51.968Z,75.2
2018-07-09T02:01:53.368Z,75.4
2018-07-09T02:02:54.763Z,75.2
2018-07-09T02:03:56.158Z,75.5
2018-07-09T02:04:57.545Z,75.9
2018-07-09T02:05:58.938Z,76.7
2018-07-09T02:07:00.332Z,77.0
2018-07-09T02:08:01.726Z,77.7
2018-07-09T02:09:03.114Z,77.7
2018-07-09T02:10:04.514Z,78.5
2018-07-09T02:11:05.908Z,78.1
2018-07-09T02:12:07.302Z,78.2
2018-07-09T02:13:08.699Z,78.1
2018-07-09T02:14:10.114Z,79.0
2018-07-09T02:15:11.512Z,78.6
2018-07-09T02:16:12.905Z,78.8
2018-07-09T02:17:14.299Z,78.9
2018-07-09T02:18:15.698Z,78.1
2018-07-09T02:19:17.093Z,78.3
2018-07-09T02:20:18.484Z,77.9
2018-07-09T02:21:19.876Z,78.1
2018-07-09T02:22:21.273Z,78.2
2018-07-09T02:23:22.663Z,78.6
2018-07-09T02:24:24.061Z,78.2
2018-07-09T02:25:25.450Z,78.2
2018-07-09T02:26:26.840Z,77.9
2018-07-09T02:27:28.255Z,78.0
2018-07-09T02:28:29.647Z,77.8
2018-07-09T02:29:31.043Z,77.7
2018-07-09T02:30:32.438Z,77.8
2018-07-09T02:31:33.834Z,78.3
2018-07-09T02:32:35.236Z,78.5
2018-07-09T02:33:36.624Z,78.7
2018-07-09T02:34:38.026Z,78.7
2018-07-09T02:35:39.442Z,79.3
2018-07-09T02:36:40.836Z,79.2
2018-07-09T02:37:42.246Z,79.4
2018-07-09T02:38:43.642Z,80.1
2018-07-09T02:39:45.032Z,80.7
2018-07-09T02:40:46.423Z,80.9
2018-07-09T02:41:47.813Z,81.9
2018-07-09T02:42:49.202Z,82.1
2018-07-09T02:43:50.596Z,82.0
2018-07-09T02:44:51.986Z,81.7
2018-07-09T02:45:53.412Z,82.1
2018-07-09T02:46:54.790Z,81.8
2018-07-09T02:47:56.187Z,81.9
2018-07-09T02:48:57.607Z,81.8
2018-07-09T02:49:58.996Z,81.5
2018-07-09T02:51:00.390Z,82.4
2018-07-09T02:52:01.783Z,82.2
2018-07-09T02:53:03.213Z,82.3
2018-07-09T02:54:04.611Z,83.0
2018-07-09T02:55:06.004Z,82.9
2018-07-09T02:56:07.404Z,82.6
2018-07-09T02:57:08.797Z,83.1
2018-07-09T02:58:10.186Z,83.0
2018-07-09T02:59:11.578Z,82.8
2018-07-09T03:00:12.974Z,83.1
2018-07-09T03:01:14.528Z,82.8
2018-07-09T03:02:15.758Z,83.0
2018-07-09T03:03:17.151Z,82.8
2018-07-09T03:04:18.548Z,83.4
2018-07-09T03:05:19.937Z,83.4
2018-07-09T03:06:21.331Z,83.8
2018-07-09T03:07:22.723Z,83.9
2018-07-09T03:08:24.118Z,83.5
2018-07-09T03:09:25.507Z,84.1
2018-07-09T03:10:26.897Z,83.9
2018-07-09T03:11:28.286Z,83.9
2018-07-09T03:12:29.683Z,84.1
2018-07-09T03:13:31.077Z,84.5
2018-07-09T03:14:32.469Z,84.3
2018-07-09T03:15:33.861Z,84.1
2018-07-09T03:16:35.317Z,84.0
2018-07-09T03:17:36.757Z,83.2
2018-07-09T03:18:38.155Z,83.8
2018-07-09T03:19:39.543Z,84.4
2018-07-09T03:20:40.936Z,84.1
2018-07-09T03:21:42.354Z,84.7
2018-07-09T03:22:43.725Z,85.1
2018-07-09T03:23:45.113Z,84.8
2018-07-09T03:24:46.506Z,84.7
2018-07-09T03:25:47.898Z,83.8
2018-07-09T03:26:49.292Z,84.3
2018-07-09T03:27:50.708Z,84.1
2018-07-09T03:28:52.101Z,83.8
2018-07-09T03:29:53.498Z,83.9
2018-07-09T03:30:54.890Z,84.3
2018-07-09T03:31:56.295Z,84.4
2018-07-09T03:32:57.678Z,83.6
2018-07-09T03:33:59.070Z,83.9
2018-07-09T03:35:00.461Z,84.5
2018-07-09T03:36:01.855Z,84.3
2018-07-09T03:37:03.249Z,84.5
2018-07-09T03:38:04.648Z,84.4
2018-07-09T03:39:06.038Z,83.7
2018-07-09T03:40:07.434Z,83.7
2018-07-09T03:41:08.821Z,84.0
2018-07-09T03:42:10.215Z,83.6
2018-07-09T03:43:11.615Z,83.7
2018-07-09T03:44:13.011Z,85.0
2018-07-09T03:45:14.407Z,85.1
2018-07-09T03:46:15.801Z,85.4
2018-07-09T03:47:17.207Z,85.3
2018-07-09T03:48:18.593Z,85.6
2018-07-09T03:49:19.985Z,85.6
2018-07-09T03:50:21.429Z,85.9
2018-07-09T03:51:22.820Z,86.2
2018-07-09T03:52:24.212Z,86.2
2018-07-09T03:53:25.611Z,86.0
2018-07-09T03:54:27.002Z,86.6
2018-07-09T03:55:28.396Z,86.3
2018-07-09T03:56:29.802Z,87.0
2018-07-09T03:57:31.187Z,86.7
2018-07-09T03:58:32.588Z,87.1
2018-07-09T03:59:33.984Z,86.8
2018-07-09T04:00:35.389Z,87.1
2018-07-09T04:01:36.785Z,87.5
2018-07-09T04:02:38.178Z,87.4
2018-07-09T04:03:39.576Z,87.3
2018-07-09T04:04:40.973Z,88.0
2018-07-09T04:05:42.379Z,87.8
2018-07-09T04:06:43.770Z,87.9
2018-07-09T04:07:45.164Z,87.3
2018-07-09T04:08:46.560Z,87.1
2018-07-09T04:09:47.956Z,87.0
2018-07-09T04:10:49.377Z,86.9
2018-07-09T04:11:50.774Z,87.3
2018-07-09T04:12:52.173Z,87.7
2018-07-09T04:13:53.565Z,86.7
2018-07-09T04:14:54.959Z,87.5
2018-07-09T04:15:56.358Z,87.8
2018-07-09T04:16:57.756Z,87.2
2018-07-09T04:17:59.150Z,87.2
2018-07-09T04:19:00.549Z,87.1
2018-07-09T04:20:01.945Z,87.0
2018-07-09T04:21:03.339Z,87.2
2018-07-09T04:22:04.732Z,87.3
2018-07-09T04:23:06.133Z,87.9
2018-07-09T04:24:07.526Z,87.8
2018-07-09T04:25:08.924Z,88.5
2018-07-09T04:26:10.333Z,88.7
2018-07-09T04:27:11.722Z,88.3
2018-07-09T04:28:13.120Z,88.2
2018-07-09T04:29:14.514Z,88.3
2018-07-09T04:30:15.926Z,88.6
2018-07-09T04:31:17.329Z,88.4
2018-07-09T04:32:18.728Z,88.7
2018-07-09T04:33:20.153Z,88.6
2018-07-09T04:34:21.549Z,88.9
2018-07-09T04:35:22.947Z,88.8
2018-07-09T04:36:24.342Z,88.5
2018-07-09T04:37:25.737Z,88.9
2018-07-09T04:38:27.138Z,88.9
2018-07-09T04:39:28.539Z,88.9
2018-07-09T04:40:29.934Z,89.2
2018-07-09T04:41:31.334Z,89.6
2018-07-09T04:42:32.751Z,89.8
2018-07-09T04:43:34.191Z,89.9
2018-07-09T04:44:35.590Z,89.8
2018-07-09T04:45:36.983Z,89.5
2018-07-09T04:46:38.398Z,89.6
2018-07-09T04:47:39.791Z,89.8
2018-07-09T04:48:41.191Z,89.5
2018-07-09T04:49:42.583Z,89.7
2018-07-09T04:50:43.981Z,89.8
2018-07-09T04:51:45.378Z,89.5
2018-07-09T04:52:46.773Z,90.0
2018-07-09T04:53:48.172Z,90.1
2018-07-09T04:54:49.566Z,89.9
2018-07-09T04:55:50.965Z,89.9
2018-07-09T04:56:52.357Z,89.9
2018-07-09T04:57:53.752Z,89.9
2018-07-09T04:58:55.144Z,89.7
2018-07-09T04:59:56.540Z,89.8
2018-07-09T05:00:57.932Z,90.3
2018-07-09T05:01:59.332Z,90.2
2018-07-09T05:03:00.736Z,89.8
2018-07-09T05:04:02.136Z,90.0
2018-07-09T05:05:03.533Z,89.9
2018-07-09T05:06:04.930Z,90.0
2018-07-09T05:07:06.326Z,89.7
2018-07-09T05:08:07.723Z,90.1
2018-07-09T05:09:09.118Z,90.0
2018-07-09T05:10:10.514Z,90.3
2018-07-09T05:11:11.909Z,89.8
2018-07-09T05:12:13.303Z,90.4
2018-07-09T05:13:14.703Z,89.9
2018-07-09T05:14:16.110Z,89.6
2018-07-09T05:15:17.503Z,89.3
2018-07-09T05:16:19.384Z,89.2
2018-07-09T05:17:20.780Z,88.9
2018-07-09T05:18:22.183Z,88.6
2018-07-09T05:19:23.576Z,88.5
2018-07-09T05:20:24.969Z,88.8
2018-07-09T05:21:26.369Z,88.6
2018-07-09T05:22:27.771Z,87.5
2018-07-09T05:23:29.166Z,87.8
2018-07-09T05:24:30.569Z,88.0
2018-07-09T05:25:32.027Z,87.4
2018-07-09T05:26:33.421Z,87.3
2018-07-09T05:27:34.815Z,87.4
2018-07-09T05:28:36.224Z,87.5
2018-07-09T05:29:37.618Z,87.4
2018-07-09T05:30:39.015Z,87.4
2018-07-09T05:31:40.414Z,87.5
2018-07-09T05:32:42.173Z,87.3
2018-07-09T05:33:43.567Z,87.4
2018-07-09T05:34:44.978Z,87.3
2018-07-09T05:35:46.370Z,87.4
2018-07-09T05:36:47.766Z,87.5
2018-07-09T05:37:49.187Z,88.3
2018-07-09T05:38:50.581Z,87.4
2018-07-09T05:39:51.995Z,87.4
2018-07-09T05:40:53.371Z,87.2
2018-07-09T05:41:54.762Z,87.2
2018-07-09T05:42:56.158Z,87.1
2018-07-09T05:43:57.553Z,87.5
2018-07-09T05:44:58.950Z,88.0
2018-07-09T05:46:00.349Z,87.3
2018-07-09T05:47:01.898Z,87.6
2018-07-09T05:48:03.170Z,87.4
2018-07-09T05:49:04.573Z,87.5
2018-07-09T05:50:05.965Z,86.9
2018-07-09T05:51:07.409Z,87.0
2018-07-09T05:52:08.821Z,86.7
2018-07-09T05:53:10.227Z,87.1
2018-07-09T05:54:11.621Z,87.2
2018-07-09T05:55:13.016Z,86.5
2018-07-09T05:56:14.713Z,86.5
2018-07-09T05:57:16.076Z,86.5
2018-07-09T05:58:17.470Z,86.3
2018-07-09T05:59:18.875Z,86.0
2018-07-09T06:00:20.272Z,85.8
2018-07-09T06:01:21.671Z,86.3
2018-07-09T06:02:23.067Z,85.6
2018-07-09T06:03:24.464Z,85.7
2018-07-09T06:04:25.857Z,86.3
2018-07-09T06:05:27.271Z,85.6
2018-07-09T06:06:28.715Z,86.6
2018-07-09T06:07:30.118Z,85.9
2018-07-09T06:08:31.523Z,85.7
2018-07-09T06:09:32.922Z,84.5
2018-07-09T06:10:34.332Z,83.9
2018-07-09T06:11:35.838Z,84.4
2018-07-09T06:12:37.127Z,83.7
2018-07-09T06:13:38.586Z,83.5
2018-07-09T06:14:39.929Z,83.6
2018-07-09T06:15:41.332Z,82.7
2018-07-09T06:16:42.728Z,82.6
2018-07-09T06:17:44.123Z,82.8
2018-07-09T06:18:45.522Z,83.0
2018-07-09T06:19:46.999Z,82.7
2018-07-09T06:20:48.333Z,82.6
2018-07-09T06:21:49.727Z,81.9
2018-07-09T06:22:51.129Z,81.8
2018-07-09T06:23:52.523Z,81.9
2018-07-09T06:24:53.923Z,82.0
2018-07-09T06:25:55.317Z,81.9
2018-07-09T06:26:56.714Z,81.9
2018-07-09T06:27:58.113Z,82.0
2018-07-09T06:28:59.510Z,81.2
2018-07-09T06:30:00.909Z,81.3
2018-07-09T06:31:02.314Z,80.9
2018-07-09T06:32:03.712Z,80.3
2018-07-09T06:33:05.114Z,80.7
2018-07-09T06:34:06.512Z,80.7
2018-07-09T06:35:07.910Z,79.9
2018-07-09T06:36:09.311Z,79.7
2018-07-09T06:37:10.707Z,79.8
2018-07-09T06:38:12.104Z,80.0
2018-07-09T06:39:13.502Z,80.0
2018-07-09T06:40:14.916Z,80.1
2018-07-09T06:41:16.314Z,79.6
2018-07-09T06:42:17.709Z,78.6
2018-07-09T06:43:19.109Z,79.0
2018-07-09T06:44:20.504Z,79.1
2018-07-09T06:45:21.899Z,78.8
2018-07-09T06:46:23.300Z,78.9
2018-07-09T06:47:24.694Z,78.5
2018-07-09T06:48:26.096Z,79.1
2018-07-09T06:49:27.502Z,78.6
2018-07-09T06:50:28.906Z,79.3
2018-07-09T06:51:30.299Z,78.1
2018-07-09T06:52:31.696Z,78.7
2018-07-09T06:53:33.094Z,78.2
2018-07-09T06:54:34.495Z,77.9
2018-07-09T06:55:35.893Z,77.8
2018-07-09T06:56:37.294Z,78.0
2018-07-09T06:57:38.695Z,77.5
2018-07-09T06:58:40.100Z,76.9
2018-07-09T06:59:41.495Z,77.2
2018-07-09T07:00:42.909Z,77.0
2018-07-09T07:01:44.311Z,77.0
2018-07-09T07:02:45.708Z,77.1
2018-07-09T07:03:47.109Z,76.7
2018-07-09T07:04:48.518Z,77.2
2018-07-09T07:05:49.912Z,77.1
2018-07-09T07:06:51.310Z,75.4
2018-07-09T07:07:52.709Z,74.5
2018-07-09T07:08:54.221Z,73.8
2018-07-09T07:09:55.502Z,74.0
2018-07-09T07:10:56.901Z,73.7
2018-07-09T07:11:58.301Z,73.5
2018-07-09T07:12:59.695Z,73.0
2018-07-09T07:14:01.097Z,72.9
2018-07-09T07:15:02.497Z,72.0
2018-07-09T07:16:03.896Z,72.7
2018-07-09T07:17:05.292Z,73.0
2018-07-09T07:18:06.722Z,72.8
2018-07-09T07:19:08.127Z,72.0
2018-07-09T07:20:09.530Z,71.6
2018-07-09T07:21:10.928Z,71.8
2018-07-09T07:22:12.326Z,71.8
2018-07-09T07:23:13.724Z,71.4
2018-07-09T07:24:15.135Z,69.4
2018-07-09T07:25:16.537Z,70.4
2018-07-09T07:26:17.939Z,70.3
2018-07-09T07:27:19.333Z,70.0
2018-07-09T07:28:20.736Z,69.1
2018-07-09T07:29:22.133Z,69.4
2018-07-09T07:30:23.537Z,69.6
2018-07-09T07:31:25.035Z,70.2
2018-07-09T07:32:26.419Z,69.7
2018-07-09T07:33:27.819Z,68.0
2018-07-09T07:34:29.217Z,69.1
2018-07-09T07:35:30.613Z,68.5
2018-07-09T07:36:32.015Z,65.9
2018-07-09T07:37:33.417Z,65.1
2018-07-09T07:38:34.822Z,65.5
2018-07-09T07:39:36.784Z,65.5
2018-07-09T07:40:38.185Z,65.8
2018-07-09T07:41:39.583Z,66.6
2018-07-09T07:42:40.981Z,65.1
2018-07-09T07:43:42.387Z,65.1
2018-07-09T07:44:43.805Z,65.1
2018-07-09T07:45:45.188Z,64.9
2018-07-09T07:46:46.586Z,64.8
2018-07-09T07:47:47.987Z,63.6
2018-07-09T07:48:49.395Z,63.4
2018-07-09T07:49:50.790Z,63.4
2018-07-09T07:50:52.190Z,62.5
2018-07-09T07:51:53.586Z,61.6
2018-07-09T07:52:54.988Z,61.7
2018-07-09T07:53:56.390Z,62.1
2018-07-09T07:54:57.792Z,61.2
2018-07-09T07:55:59.231Z,60.4
2018-07-09T07:57:01.523Z,60.2
2018-07-09T07:58:02.953Z,59.5
2018-07-09T07:59:04.353Z,60.2
2018-07-09T08:00:05.751Z,59.3
2018-07-09T08:01:07.155Z,60.4
2018-07-09T08:02:08.560Z,61.2
2018-07-09T08:03:09.963Z,61.3
2018-07-09T08:04:11.358Z,60.4
2018-07-09T08:05:12.761Z,60.1
2018-07-09T08:06:14.175Z,60.3
2018-07-09T08:07:15.580Z,58.5
2018-07-09T08:08:16.981Z,58.1
2018-07-09T08:09:18.429Z,57.4
2018-07-09T08:10:19.783Z,57.1
2018-07-09T08:11:21.183Z,59.0
2018-07-09T08:13:29.535Z,58.9
2018-07-09T08:14:25.627Z,59.5
2018-07-09T08:15:27.042Z,58.9
2018-07-09T08:16:28.436Z,58.4
2018-07-09T08:17:29.830Z,57.2
2018-07-09T08:18:31.232Z,57.2
2018-07-09T08:19:32.635Z,57.4
2018-07-09T08:20:34.033Z,57.1
2018-07-09T08:21:35.435Z,57.2
2018-07-09T08:22:36.843Z,56.5
2018-07-09T08:23:38.246Z,56.2
2018-07-09T08:24:39.651Z,56.3
2018-07-09T08:25:41.110Z,56.4
2018-07-09T08:26:42.460Z,55.8
2018-07-09T08:27:43.845Z,56.6
2018-07-09T08:28:45.244Z,55.9
2018-07-09T08:29:46.647Z,56.5
2018-07-09T08:30:48.048Z,55.9
2018-07-09T08:31:49.447Z,55.2
2018-07-09T08:32:50.848Z,55.4
2018-07-09T08:33:52.258Z,55.4
2018-07-09T08:34:53.653Z,54.9
2018-07-09T08:35:55.058Z,55.1
2018-07-09T08:36:56.456Z,54.1
2018-07-09T08:37:57.869Z,54.5
2018-07-09T08:38:59.256Z,53.4
2018-07-09T08:40:00.656Z,54.3
2018-07-09T08:41:02.061Z,52.7
2018-07-09T08:42:03.463Z,53.3
2018-07-09T08:43:04.870Z,54.5
2018-07-09T08:44:06.270Z,53.8
2018-07-09T08:45:07.672Z,53.5
2018-07-09T08:46:09.071Z,53.3
2018-07-09T08:47:10.466Z,53.3
2018-07-09T08:48:11.868Z,53.4
2018-07-09T08:49:13.272Z,53.3
2018-07-09T08:50:14.703Z,53.0
2018-07-09T08:51:16.107Z,54.4
2018-07-09T08:52:17.512Z,54.5
2018-07-09T08:53:18.909Z,54.6
2018-07-09T08:54:20.378Z,53.3
2018-07-09T08:55:21.833Z,52.9
2018-07-09T08:56:23.197Z,53.1
2018-07-09T08:57:24.599Z,52.8
2018-07-09T08:58:26.001Z,51.2
2018-07-09T08:59:27.407Z,52.5
2018-07-09T09:00:28.808Z,52.9
2018-07-09T09:01:30.210Z,52.6
2018-07-09T09:02:31.613Z,53.4
2018-07-09T09:03:33.016Z,52.8
2018-07-09T09:04:34.419Z,52.6
2018-07-09T09:05:35.822Z,50.7
2018-07-09T09:06:37.227Z,50.7
2018-07-09T09:07:38.623Z,51.5
2018-07-09T09:08:40.024Z,51.2
2018-07-09T09:09:41.425Z,51.0
2018-07-09T09:10:42.825Z,49.2
2018-07-09T09:11:44.231Z,51.1
2018-07-09T09:12:45.632Z,51.6
2018-07-09T09:13:47.032Z,50.3
2018-07-09T09:14:48.431Z,51.4
2018-07-09T09:15:49.838Z,51.8
2018-07-09T09:16:51.234Z,51.2
2018-07-09T09:17:52.635Z,49.4
2018-07-09T09:18:54.039Z,50.3
2018-07-09T09:19:55.443Z,50.1
2018-07-09T09:20:56.845Z,48.9
2018-07-09T09:21:58.245Z,49.4
2018-07-09T09:22:59.655Z,49.1
2018-07-09T09:24:01.039Z,49.9
2018-07-09T09:25:02.443Z,49.7
2018-07-09T09:26:03.848Z,48.4
2018-07-09T09:27:05.245Z,48.8
2018-07-09T09:28:06.659Z,49.5
2018-07-09T09:29:08.055Z,48.7
2018-07-09T09:30:09.457Z,49.5
2018-07-09T09:31:10.876Z,49.5
2018-07-09T09:32:12.261Z,49.1
2018-07-09T09:33:13.664Z,49.1
2018-07-09T09:34:15.069Z,47.9
2018-07-09T09:35:16.482Z,47.5
2018-07-09T09:36:17.880Z,48.3
2018-07-09T09:37:19.370Z,47.1
2018-07-09T09:38:20.718Z,47.9
2018-07-09T09:39:22.123Z,47.7
2018-07-09T09:40:23.526Z,47.6
2018-07-09T09:41:24.931Z,48.3
2018-07-09T09:42:26.333Z,46.1
2018-07-09T09:43:27.733Z,46.8
2018-07-09T09:44:29.134Z,46.0
2018-07-09T09:45:30.544Z,46.2
2018-07-09T09:46:31.947Z,46.5
2018-07-09T09:47:33.352Z,46.4
2018-07-09T09:48:34.754Z,46.2
2018-07-09T09:49:36.156Z,45.5
2018-07-09T09:50:37.561Z,44.5
2018-07-09T09:51:38.972Z,44.6
2018-07-09T09:52:40.368Z,46.9
2018-07-09T09:53:41.769Z,46.1
2018-07-09T09:54:43.178Z,44.7
2018-07-09T09:55:44.581Z,44.9
2018-07-09T09:56:46.056Z,44.4
2018-07-09T09:57:47.449Z,43.7
2018-07-09T09:58:48.852Z,44.0
2018-07-09T09:59:50.252Z,44.3
2018-07-09T10:00:51.653Z,44.6
2018-07-09T10:01:53.133Z,42.8
2018-07-09T10:02:54.842Z,43.4
2018-07-09T10:03:56.255Z,43.5
2018-07-09T10:04:57.659Z,45.0
2018-07-09T10:05:59.073Z,45.1
2018-07-09T10:07:00.486Z,45.2
2018-07-09T10:08:01.907Z,45.0
2018-07-09T10:09:03.404Z,43.7
2018-07-09T10:10:04.833Z,43.8
2018-07-09T10:11:06.241Z,43.2
2018-07-09T10:12:07.642Z,43.4
2018-07-09T10:13:09.064Z,42.6
2018-07-09T10:14:10.464Z,43.1
2018-07-09T10:15:11.875Z,43.5
2018-07-09T10:16:13.285Z,42.4
2018-07-09T10:17:14.696Z,44.0
2018-07-09T10:18:16.095Z,43.1
2018-07-09T10:19:17.602Z,42.4
2018-07-09T10:20:19.038Z,42.7
2018-07-09T10:21:20.438Z,43.7
2018-07-09T10:22:21.832Z,42.3
2018-07-09T10:23:23.403Z,41.4
2018-07-09T10:24:24.648Z,41.8
2018-07-09T10:25:26.070Z,41.7
2018-07-09T10:26:27.475Z,42.0
2018-07-09T10:27:28.978Z,42.5
2018-07-09T10:28:30.389Z,42.6
2018-07-09T10:29:31.821Z,43.3
2018-07-09T10:30:33.250Z,42.4
2018-07-09T10:31:34.641Z,43.4
2018-07-09T10:32:36.056Z,43.5
2018-07-09T10:33:37.463Z,42.2
2018-07-09T10:34:38.877Z,41.8
2018-07-09T10:35:40.336Z,42.7
2018-07-09T10:36:41.749Z,42.1
2018-07-09T10:37:43.192Z,42.0
2018-07-09T10:38:44.603Z,41.0
2018-07-09T10:39:46.014Z,41.8
2018-07-09T10:40:47.413Z,39.6
2018-07-09T10:41:48.815Z,39.3
2018-07-09T10:42:50.227Z,39.6
2018-07-09T10:43:51.700Z,40.5
2018-07-09T10:44:53.218Z,40.4
2018-07-09T10:45:54.626Z,39.5
2018-07-09T10:46:56.033Z,38.9
2018-07-09T10:47:57.461Z,38.7
2018-07-09T10:48:58.861Z,39.4
2018-07-09T10:50:00.262Z,39.1
2018-07-09T10:51:01.720Z,39.8
2018-07-09T10:52:03.119Z,39.9
2018-07-09T10:53:04.998Z,40.0
2018-07-09T10:54:06.404Z,39.7
2018-07-09T10:55:07.854Z,39.3
2018-07-09T10:56:09.203Z,39.6
2018-07-09T10:57:10.610Z,40.1
2018-07-09T10:58:12.009Z,40.1
2018-07-09T10:59:13.414Z,40.7
2018-07-09T11:00:14.906Z,41.0
2018-07-09T11:01:16.349Z,41.4
2018-07-09T11:02:17.750Z,41.6
2018-07-09T11:03:19.173Z,41.4
2018-07-09T11:04:20.557Z,41.6
2018-07-09T11:05:21.963Z,42.6
2018-07-09T11:06:23.365Z,43.6
2018-07-09T11:07:24.769Z,42.4
2018-07-09T11:08:26.179Z,42.3
2018-07-09T11:09:27.584Z,41.6
2018-07-09T11:10:28.984Z,41.2
2018-07-09T11:11:30.397Z,42.1
2018-07-09T11:12:31.873Z,41.8
2018-07-09T11:13:33.280Z,41.6
2018-07-09T11:14:34.814Z,40.8
2018-07-09T11:15:36.213Z,40.6
2018-07-09T11:16:37.619Z,40.6
2018-07-09T11:17:39.088Z,41.0
2018-07-09T11:18:40.579Z,41.0
2018-07-09T11:19:41.985Z,41.0
2018-07-09T11:20:43.399Z,41.2
2018-07-09T11:21:44.817Z,40.8
2018-07-09T11:22:46.232Z,40.4
2018-07-09T11:23:47.646Z,40.9
2018-07-09T11:24:49.047Z,41.0
2018-07-09T11:25:50.455Z,41.1
2018-07-09T11:26:51.858Z,41.5
2018-07-09T11:27:53.263Z,41.5
2018-07-09T11:28:54.695Z,41.5
2018-07-09T11:29:56.115Z,41.6
2018-07-09T11:30:57.518Z,41.7
2018-07-09T11:31:58.923Z,42.5
2018-07-09T11:33:00.329Z,44.0
2018-07-09T11:34:01.741Z,42.4
2018-07-09T11:35:03.148Z,41.8
2018-07-09T11:36:04.591Z,42.0
2018-07-09T11:37:05.957Z,42.5
2018-07-09T11:38:07.378Z,41.8
2018-07-09T11:39:08.782Z,42.1
2018-07-09T11:40:10.188Z,42.6
2018-07-09T11:41:11.614Z,42.7
2018-07-09T11:42:13.139Z,43.0
2018-07-09T11:43:14.540Z,43.6
2018-07-09T11:44:15.973Z,43.1
2018-07-09T11:45:17.381Z,44.5
2018-07-09T11:46:18.780Z,42.9
2018-07-09T11:47:20.250Z,43.0
2018-07-09T11:48:21.653Z,41.8
2018-07-09T11:49:23.083Z,41.2
2018-07-09T11:50:24.488Z,41.2
2018-07-09T11:51:25.889Z,40.9
2018-07-09T11:52:27.301Z,41.0
2018-07-09T11:53:28.702Z,40.9
2018-07-09T11:54:30.103Z,40.6
2018-07-09T11:55:31.514Z,40.8
2018-07-09T11:56:32.919Z,41.2
2018-07-09T11:57:34.332Z,40.6
2018-07-09T11:58:35.790Z,41.5
2018-07-09T11:59:37.149Z,41.1
2018-07-09T12:00:38.551Z,41.0
2018-07-09T12:01:39.957Z,40.9
2018-07-09T12:02:41.363Z,41.3
2018-07-09T12:03:42.766Z,40.7
2018-07-09T12:04:44.186Z,39.7
2018-07-09T12:05:45.595Z,40.7
2018-07-09T12:06:47.004Z,39.8
2018-07-09T12:07:48.408Z,40.0
2018-07-09T12:08:49.827Z,39.4
2018-07-09T12:09:51.232Z,39.5
2018-07-09T12:10:52.637Z,38.4
2018-07-09T12:11:54.045Z,39.6
2018-07-09T12:12:55.465Z,38.4
2018-07-09T12:13:56.868Z,39.8
2018-07-09T12:14:58.277Z,39.4
2018-07-09T12:15:59.680Z,40.2
2018-07-09T12:17:01.100Z,40.1
2018-07-09T12:18:02.501Z,40.8
2018-07-09T12:19:03.908Z,40.7
2018-07-09T12:20:05.325Z,40.7
2018-07-09T12:21:06.730Z,39.1
2018-07-09T12:22:08.131Z,39.6
2018-07-09T12:23:09.542Z,38.5
2018-07-09T12:24:11.030Z,38.4
2018-07-09T12:25:12.472Z,38.0
2018-07-09T12:26:13.879Z,36.8
2018-07-09T12:27:15.286Z,38.4
2018-07-09T12:28:16.709Z,36.8
2018-07-09T12:29:18.113Z,37.1
2018-07-09T12:30:19.521Z,36.3
2018-07-09T12:31:20.925Z,37.0
2018-07-09T12:32:22.331Z,36.8
2018-07-09T12:33:23.752Z,37.3
2018-07-09T12:34:25.159Z,36.6
2018-07-09T12:35:26.561Z,36.7
2018-07-09T12:36:28.042Z,37.4
2018-07-09T12:37:29.369Z,37.2
2018-07-09T12:38:30.776Z,37.0
2018-07-09T12:39:32.209Z,36.7
2018-07-09T12:40:33.617Z,36.6
2018-07-09T12:41:35.032Z,36.8
2018-07-09T12:42:36.435Z,36.7
2018-07-09T12:43:37.842Z,36.9
2018-07-09T12:44:39.258Z,36.9
2018-07-09T12:45:40.661Z,36.7
2018-07-09T12:46:42.075Z,36.6
2018-07-09T12:47:44.115Z,37.4
2018-07-09T12:48:45.521Z,38.0
2018-07-09T12:49:46.970Z,38.3
2018-07-09T12:50:48.329Z,37.8
2018-07-09T12:51:49.732Z,37.6
2018-07-09T12:52:51.136Z,38.0
2018-07-09T12:53:52.542Z,39.1
2018-07-09T12:54:53.951Z,39.3
2018-07-09T12:55:55.368Z,39.3
2018-07-09T12:56:56.763Z,39.9
2018-07-09T12:57:58.167Z,39.4
2018-07-09T12:58:59.573Z,39.8
2018-07-09T13:00:01.006Z,38.6
2018-07-09T13:01:02.413Z,39.2
2018-07-09T13:02:03.818Z,39.1
2018-07-09T13:03:05.228Z,38.9
2018-07-09T13:04:06.632Z,38.7
2018-07-09T13:05:08.124Z,39.0
2018-07-09T13:06:09.541Z,39.5
2018-07-09T13:07:10.948Z,38.3
2018-07-09T13:08:12.350Z,39.2
2018-07-09T13:09:13.761Z,38.7
2018-07-09T13:10:15.276Z,38.1
2018-07-09T13:11:16.686Z,39.8
2018-07-09T13:12:18.094Z,37.9
2018-07-09T13:13:19.497Z,38.1
2018-07-09T13:14:20.913Z,38.9
2018-07-09T13:15:22.307Z,39.3
2018-07-09T13:16:23.717Z,39.5
2018-07-09T13:17:25.124Z,39.3
2018-07-09T13:18:26.527Z,38.7
2018-07-09T13:19:27.931Z,39.0
2018-07-09T13:20:29.334Z,39.5
2018-07-09T13:21:30.739Z,38.9
2018-07-09T13:22:32.558Z,38.8
2018-07-09T13:23:33.959Z,39.1
2018-07-09T13:24:35.367Z,39.8
2018-07-09T13:25:36.772Z,39.8
2018-07-09T13:26:38.185Z,40.6
2018-07-09T13:27:39.584Z,40.8
2018-07-09T13:28:40.975Z,40.6
2018-07-09T13:29:42.399Z,40.5
2018-07-09T13:30:43.800Z,40.7
2018-07-09T13:31:45.214Z,40.9
2018-07-09T13:32:46.619Z,41.7
2018-07-09T13:33:48.023Z,42.1
2018-07-09T13:34:49.429Z,42.3
2018-07-09T13:35:50.833Z,41.6
2018-07-09T13:36:52.237Z,42.6
2018-07-09T13:37:53.686Z,40.9